sensor_id;sensor_type;location;lat;lon;timestamp;pressure;altitude;pressure_sealevel;temperature;humidity
73105;BME280;61296;50.526;30.792;2023-04-01T00:03:46;98125.94;;;5.33;100.00
73105;BME280;61296;50.526;30.792;2023-04-01T00:19:05;98224.81;;;6.04;100.00
73105;BME280;61296;50.526;30.792;2023-04-01T00:34:25;98122.56;;;5.50;100.00
73105;BME280;61296;50.526;30.792;2023-04-01T00:49:46;98065.91;;;5.30;100.00
73105;BME280;61296;50.526;30.792;2023-04-01T01:05:07;98089.13;;;5.54;100.00
73105;BME280;61296;50.526;30.792;2023-04-01T01:36:04;98200.91;;;6.39;100.00
73105;BME280;61296;50.526;30.792;2023-04-01T01:51:26;98186.78;;;6.26;100.00
73105;BME280;61296;50.526;30.792;2023-04-01T02:06:55;98143.66;;;5.98;100.00
73105;BME280;61296;50.526;30.792;2023-04-01T02:22:24;98110.28;;;5.71;100.00
73105;BME280;61296;50.526;30.792;2023-04-01T02:37:49;98239.75;;;6.69;100.00
73105;BME280;61296;50.526;30.792;2023-04-01T02:53:09;98131.28;;;6.07;100.00
73105;BME280;61296;50.526;30.792;2023-04-01T03:08:28;98135.56;;;6.05;100.00
73105;BME280;61296;50.526;30.792;2023-04-01T03:23:48;98101.38;;;5.77;100.00
73105;BME280;61296;50.526;30.792;2023-04-01T03:39:07;98234.63;;;6.64;100.00
73105;BME280;61296;50.526;30.792;2023-04-01T03:54:33;98148.69;;;5.92;100.00
73105;BME280;61296;50.526;30.792;2023-04-01T04:09:53;98165.22;;;6.10;100.00
73105;BME280;61296;50.526;30.792;2023-04-01T04:25:12;98162.47;;;6.06;100.00
73105;BME280;61296;50.526;30.792;2023-04-01T04:40:36;98165.53;;;6.01;100.00
73105;BME280;61296;50.526;30.792;2023-04-01T04:55:55;98190.16;;;6.08;100.00
73105;BME280;61296;50.526;30.792;2023-04-01T05:11:28;98214.91;;;6.33;100.00
73105;BME280;61296;50.526;30.792;2023-04-01T05:26:49;98119.44;;;5.93;100.00
73105;BME280;61296;50.526;30.792;2023-04-01T05:42:09;98281.75;;;7.09;100.00
73105;BME280;61296;50.526;30.792;2023-04-01T05:57:29;98217.13;;;6.76;100.00
73105;BME280;61296;50.526;30.792;2023-04-01T06:44:16;98308.22;;;7.77;100.00
73105;BME280;61296;50.526;30.792;2023-04-01T07:00:29;98211.88;;;7.15;100.00
73105;BME280;61296;50.526;30.792;2023-04-01T07:15:54;98177.06;;;7.08;98.21
73105;BME280;61296;50.526;30.792;2023-04-01T08:17:34;98319.66;;;9.25;90.23
73105;BME280;61296;50.526;30.792;2023-04-01T10:40:23;98216.66;;;11.52;74.54
73105;BME280;61296;50.526;30.792;2023-04-01T11:43:35;98281.94;;;13.10;69.36
73105;BME280;61296;50.526;30.792;2023-04-01T12:46:56;98243.25;;;13.53;65.95
73105;BME280;61296;50.526;30.792;2023-04-01T13:18:53;98175.75;;;13.54;62.02
73105;BME280;61296;50.526;30.792;2023-04-01T14:05:35;98220.16;;;13.63;63.00
73105;BME280;61296;50.526;30.792;2023-04-01T14:52:27;98126.66;;;12.46;64.55
73105;BME280;61296;50.526;30.792;2023-04-01T15:23:24;98234.63;;;12.18;73.19
73105;BME280;61296;50.526;30.792;2023-04-01T15:38:49;98264.72;;;11.47;79.25
73105;BME280;61296;50.526;30.792;2023-04-01T15:54:23;98282.72;;;11.18;83.17
73105;BME280;61296;50.526;30.792;2023-04-01T16:10:16;98123.16;;;10.05;83.91
73105;BME280;61296;50.526;30.792;2023-04-01T16:25:43;98319.41;;;11.04;81.57
73105;BME280;61296;50.526;30.792;2023-04-01T16:41:16;98216.50;;;10.12;81.61
73105;BME280;61296;50.526;30.792;2023-04-01T16:56:45;98320.34;;;10.42;84.92
73105;BME280;61296;50.526;30.792;2023-04-01T17:12:22;98352.63;;;10.20;89.72
73105;BME280;61296;50.526;30.792;2023-04-01T17:27:52;98350.78;;;9.96;92.85
73105;BME280;61296;50.526;30.792;2023-04-01T17:59:53;98393.22;;;9.77;97.12
73105;BME280;61296;50.526;30.792;2023-04-01T18:46:39;98319.34;;;8.77;100.00
73105;BME280;61296;50.526;30.792;2023-04-01T19:02:08;98284.50;;;8.49;100.00
73105;BME280;61296;50.526;30.792;2023-04-01T19:18:06;98255.13;;;8.25;100.00
73105;BME280;61296;50.526;30.792;2023-04-01T20:04:53;98285.97;;;7.90;100.00
73105;BME280;61296;50.526;30.792;2023-04-01T20:20:23;98303.19;;;7.97;100.00
73105;BME280;61296;50.526;30.792;2023-04-01T20:36:03;98405.44;;;8.37;100.00
73105;BME280;61296;50.526;30.792;2023-04-01T20:51:29;98238.47;;;7.25;100.00
73105;BME280;61296;50.526;30.792;2023-04-01T21:07:14;98404.19;;;8.17;100.00
73105;BME280;61296;50.526;30.792;2023-04-01T21:54:11;98419.75;;;7.98;100.00
73105;BME280;61296;50.526;30.792;2023-04-01T22:25:59;98393.47;;;7.79;100.00
73105;BME280;61296;50.526;30.792;2023-04-01T22:57:37;98397.38;;;7.78;100.00
73105;BME280;61296;50.526;30.792;2023-04-01T23:13:01;98224.53;;;6.68;100.00
73105;BME280;61296;50.526;30.792;2023-04-01T23:28:45;98391.88;;;7.71;100.00
73105;BME280;61296;50.526;30.792;2023-04-01T23:44:18;98323.56;;;7.16;100.00
73105;BME280;61296;50.526;30.792;2023-04-01T23:59:38;98338.75;;;7.07;100.00
